createdAt,value
2023-08-27T00:00:28.793Z,100977.47
2023-08-27T00:01:00.277Z,100979.44
2023-08-27T00:01:31.825Z,100971.97
2023-08-27T00:02:04.898Z,100976.28
2023-08-27T00:02:36.736Z,100972.38
2023-08-27T00:03:08.205Z,100973.94
2023-08-27T00:03:39.761Z,100971.97
2023-08-27T00:04:11.256Z,100976.28
2023-08-27T00:04:44.097Z,100971.59
2023-08-27T00:06:04.860Z,100973.16
2023-08-27T00:06:36.562Z,100973.16
2023-08-27T00:07:08.576Z,100973.16
2023-08-27T00:07:40.350Z,100964.16
2023-08-27T00:08:12.378Z,100968.06
2023-08-27T00:08:44.918Z,100962.19
2023-08-27T00:09:16.321Z,100967.28
2023-08-27T00:09:48.021Z,100969.25
2023-08-27T00:10:19.463Z,100970.81
2023-08-27T00:10:50.879Z,100975.91
2023-08-27T00:11:22.321Z,100973.94
2023-08-27T00:11:53.823Z,100973.94
2023-08-27T00:12:25.506Z,100970.03
2023-08-27T00:12:57.336Z,100973.53
2023-08-27T00:13:29.047Z,100978.63
2023-08-27T00:14:00.511Z,100970.81
2023-08-27T00:14:32.069Z,100971.59
2023-08-27T00:15:04.869Z,100967.66
2023-08-27T00:15:36.384Z,100968.47
2023-08-27T00:16:07.886Z,100964.94
2023-08-27T00:16:39.420Z,100968.84
2023-08-27T00:17:10.980Z,100959.06
2023-08-27T00:17:43.088Z,100965.72
2023-08-27T00:18:14.668Z,100967.66
2023-08-27T00:18:46.200Z,100968.47
2023-08-27T00:19:17.698Z,100975.50
2023-08-27T00:19:49.487Z,100968.84
2023-08-27T00:20:21.005Z,100972.38
2023-08-27T00:20:52.466Z,100976.69
2023-08-27T00:21:23.995Z,100974.28
2023-08-27T00:21:55.449Z,100975.88
2023-08-27T00:22:27.139Z,100974.69
2023-08-27T00:22:59.028Z,100972.72
2023-08-27T00:23:30.638Z,100966.06
2023-08-27T00:24:02.152Z,100968.03
2023-08-27T00:24:33.663Z,100966.84
2023-08-27T00:25:05.945Z,100969.59
2023-08-27T00:25:37.726Z,100959.41
2023-08-27T00:26:09.421Z,100959.03
2023-08-27T00:26:40.924Z,100957.06
2023-08-27T00:27:12.360Z,100955.88
2023-08-27T00:28:03.342Z,100957.84
2023-08-27T00:28:34.865Z,100953.53
2023-08-27T00:29:06.386Z,100956.69
2023-08-27T00:29:37.891Z,100951.97
2023-08-27T00:30:10.373Z,100952.75
2023-08-27T00:30:42.608Z,100951.19
2023-08-27T00:31:14.093Z,100951.19
2023-08-27T00:31:45.907Z,100947.66
2023-08-27T00:32:25.170Z,100946.88
2023-08-27T00:32:58.242Z,100944.94
2023-08-27T00:33:31.334Z,100946.88
2023-08-27T00:34:03.013Z,100951.19
2023-08-27T00:34:35.664Z,100952.75
2023-08-27T00:35:07.457Z,100951.19
2023-08-27T00:35:38.981Z,100957.47
2023-08-27T00:36:10.510Z,100948.44
2023-08-27T00:36:42.112Z,100947.66
2023-08-27T00:37:13.682Z,100948.44
2023-08-27T00:37:45.312Z,100947.66
2023-08-27T00:38:16.959Z,100948.84
2023-08-27T00:38:48.645Z,100950.41
2023-08-27T00:39:20.087Z,100945.72
2023-08-27T00:39:51.644Z,100942.97
2023-08-27T00:40:23.059Z,100951.97
2023-08-27T00:40:54.470Z,100941.78
2023-08-27T00:41:25.969Z,100944.91
2023-08-27T00:41:57.888Z,100954.31
2023-08-27T00:42:29.349Z,100944.53
2023-08-27T00:43:01.017Z,100946.09
2023-08-27T00:43:32.610Z,100948.44
2023-08-27T00:44:04.351Z,100937.47
2023-08-27T00:44:35.891Z,100945.72
2023-08-27T00:45:07.759Z,100946.50
2023-08-27T00:45:40.053Z,100945.72
2023-08-27T00:46:11.907Z,100939.44
2023-08-27T00:46:44.085Z,100940.22
2023-08-27T00:47:16.662Z,100933.97
2023-08-27T00:47:48.354Z,100931.22
2023-08-27T00:48:20.713Z,100934.75
2023-08-27T00:48:52.269Z,100933.19
2023-08-27T00:49:24.190Z,100926.91
2023-08-27T00:49:55.801Z,100930.84
2023-08-27T00:50:27.724Z,100931.63
2023-08-27T00:50:59.266Z,100934.34
2023-08-27T00:51:33.608Z,100932.41
2023-08-27T00:52:06.391Z,100933.56
2023-08-27T00:52:38.303Z,100932.78
2023-08-27T00:53:10.644Z,100927.31
2023-08-27T00:53:42.378Z,100939.06
2023-08-27T00:54:14.002Z,100932.00
2023-08-27T00:54:45.899Z,100927.31
2023-08-27T00:55:17.665Z,100929.28
2023-08-27T00:55:49.342Z,100927.31
2023-08-27T00:56:21.046Z,100922.22
2023-08-27T00:56:52.766Z,100923.00
2023-08-27T00:57:25.959Z,100923.78
2023-08-27T00:57:57.996Z,100918.69
2023-08-27T00:58:29.434Z,100917.13
2023-08-27T00:59:02.279Z,100917.91
2023-08-27T00:59:34.686Z,100914.41
2023-08-27T01:00:10.654Z,100903.44
2023-08-27T01:00:42.850Z,100907.34
2023-08-27T01:01:16.654Z,100901.09
2023-08-27T01:01:48.264Z,100907.34
2023-08-27T01:02:19.680Z,100907.34
2023-08-27T01:02:51.374Z,100903.81
2023-08-27T01:03:23.078Z,100901.09
2023-08-27T01:03:54.815Z,100905.00
2023-08-27T01:04:26.409Z,100902.25
2023-08-27T01:04:57.964Z,100905.78
2023-08-27T01:05:30.050Z,100900.69
2023-08-27T01:06:01.571Z,100908.53
2023-08-27T01:06:34.135Z,100898.75
2023-08-27T01:07:15.438Z,100897.97
2023-08-27T01:07:54.758Z,100898.75
2023-08-27T01:08:46.501Z,100894.44
2023-08-27T01:09:28.756Z,100896.41
2023-08-27T01:10:12.109Z,100889.34
2023-08-27T01:11:16.602Z,100899.13
2023-08-27T01:12:10.332Z,100897.19
2023-08-27T01:13:12.135Z,100897.56
2023-08-27T01:13:57.785Z,100893.28
2023-08-27T01:14:33.866Z,100891.72
2023-08-27T01:15:08.286Z,100890.94
2023-08-27T01:15:41.019Z,100894.09
2023-08-27T01:16:13.498Z,100894.09
2023-08-27T01:16:46.169Z,100892.13
2023-08-27T01:17:21.451Z,100888.59
2023-08-27T01:17:56.469Z,100891.34
2023-08-27T01:18:29.610Z,100887.44
2023-08-27T01:19:04.857Z,100891.34
2023-08-27T01:19:37.691Z,100894.09
2023-08-27T01:20:10.959Z,100882.34
2023-08-27T01:20:42.658Z,100886.25
2023-08-27T01:21:24.550Z,100883.13
2023-08-27T01:21:55.983Z,100880.00
2023-08-27T01:22:29.203Z,100885.47
2023-08-27T01:23:00.843Z,100886.25
2023-08-27T01:23:32.480Z,100883.53
2023-08-27T01:24:04.277Z,100882.75
2023-08-27T01:24:35.776Z,100885.09
2023-08-27T01:25:09.364Z,100880.38
2023-08-27T01:25:50.656Z,100882.72
2023-08-27T01:26:29.047Z,100875.69
2023-08-27T01:27:10.370Z,100885.47
2023-08-27T01:27:51.902Z,100877.25
2023-08-27T01:28:38.780Z,100873.72
2023-08-27T01:29:16.771Z,100880.78
2023-08-27T01:30:18.002Z,100878.03
2023-08-27T01:31:09.599Z,100876.84
2023-08-27T01:31:48.468Z,100878.03
2023-08-27T01:32:34.342Z,100883.50
2023-08-27T01:33:14.224Z,100883.50
2023-08-27T01:33:46.537Z,100890.16
2023-08-27T01:34:21.246Z,100883.91
2023-08-27T01:34:55.006Z,100885.88
2023-08-27T01:35:26.925Z,100884.69
2023-08-27T01:35:59.838Z,100887.44
2023-08-27T01:36:35.655Z,100888.22
2023-08-27T01:37:07.894Z,100887.03
2023-08-27T01:37:39.653Z,100880.78
2023-08-27T01:38:12.270Z,100880.78
2023-08-27T01:38:43.921Z,100878.03
2023-08-27T01:39:16.294Z,100876.84
2023-08-27T01:39:47.830Z,100876.06
2023-08-27T01:40:19.486Z,100878.03
2023-08-27T01:40:51.018Z,100873.34
2023-08-27T01:41:22.505Z,100878.81
2023-08-27T01:41:54.303Z,100867.06
2023-08-27T01:42:25.970Z,100871.78
2023-08-27T01:42:57.866Z,100870.22
2023-08-27T01:43:32.910Z,100864.72
2023-08-27T01:44:04.506Z,100868.25
2023-08-27T01:44:36.815Z,100865.91
2023-08-27T01:45:11.315Z,100872.16
2023-08-27T01:45:42.746Z,100864.34
2023-08-27T01:46:14.396Z,100867.84
2023-08-27T01:46:45.910Z,100866.28
2023-08-27T01:47:17.397Z,100867.47
2023-08-27T01:47:48.985Z,100863.56
2023-08-27T01:48:20.509Z,100864.72
2023-08-27T01:48:52.018Z,100860.03
2023-08-27T01:49:23.494Z,100857.28
2023-08-27T01:49:54.984Z,100856.13
2023-08-27T01:50:26.413Z,100857.28
2023-08-27T01:50:57.936Z,100852.59
2023-08-27T01:51:29.693Z,100849.84
2023-08-27T01:52:01.245Z,100851.03
2023-08-27T01:52:35.092Z,100855.72
2023-08-27T01:53:06.655Z,100854.94
2023-08-27T01:53:38.082Z,100848.69
2023-08-27T01:54:09.591Z,100849.09
2023-08-27T01:54:41.260Z,100853.38
2023-08-27T01:55:12.874Z,100846.34
2023-08-27T01:55:44.824Z,100851.81
2023-08-27T01:56:16.359Z,100850.25
2023-08-27T01:56:47.747Z,100851.44
2023-08-27T01:57:19.187Z,100855.75
2023-08-27T01:57:50.659Z,100854.19
2023-08-27T01:58:22.356Z,100849.47
2023-08-27T01:58:53.893Z,100851.44
2023-08-27T01:59:25.533Z,100853.41
2023-08-27T01:59:57.032Z,100849.88
2023-08-27T02:00:28.564Z,100860.81
2023-08-27T02:01:00.539Z,100854.56
2023-08-27T02:01:32.111Z,100851.84
2023-08-27T02:02:04.181Z,100849.47
2023-08-27T02:02:37.816Z,100849.88
2023-08-27T02:03:09.446Z,100858.09
2023-08-27T02:03:40.991Z,100853.78
2023-08-27T02:04:12.487Z,100855.75
2023-08-27T02:04:44.161Z,100859.66
2023-08-27T02:05:15.679Z,100859.66
2023-08-27T02:05:48.950Z,100863.63
2023-08-27T02:06:20.675Z,100865.16
2023-08-27T02:06:52.135Z,100859.31
2023-08-27T02:07:42.407Z,100860.44
2023-08-27T02:08:13.867Z,100858.53
2023-08-27T02:08:45.346Z,100860.47
2023-08-27T02:09:16.917Z,100860.47
2023-08-27T02:09:48.552Z,100864.41
2023-08-27T02:10:20.141Z,100863.63
2023-08-27T02:10:51.730Z,100864.41
2023-08-27T02:11:23.238Z,100866.34
2023-08-27T02:11:54.630Z,100869.50
2023-08-27T02:12:26.447Z,100867.53
2023-08-27T02:12:58.313Z,100871.44
2023-08-27T02:13:30.178Z,100870.28
2023-08-27T02:14:01.712Z,100875.75
2023-08-27T02:14:33.145Z,100870.66
2023-08-27T02:15:07.927Z,100873.00
2023-08-27T02:15:39.509Z,100874.19
2023-08-27T02:16:11.008Z,100871.84
2023-08-27T02:16:42.616Z,100871.84
2023-08-27T02:17:14.279Z,100876.53
2023-08-27T02:17:45.751Z,100873.00
2023-08-27T02:18:17.287Z,100873.78
2023-08-27T02:18:48.724Z,100871.44
2023-08-27T02:19:20.470Z,100876.91
2023-08-27T02:19:52.187Z,100871.84
2023-08-27T02:20:23.774Z,100880.84
2023-08-27T02:20:57.624Z,100871.06
2023-08-27T02:21:29.308Z,100868.72
2023-08-27T02:22:02.402Z,100876.16
2023-08-27T02:22:34.869Z,100869.50
2023-08-27T02:23:06.340Z,100867.53
2023-08-27T02:23:37.858Z,100869.50
2023-08-27T02:24:09.373Z,100871.44
2023-08-27T02:24:41.048Z,100865.97
2023-08-27T02:25:12.798Z,100870.66
2023-08-27T02:25:44.244Z,100866.38
2023-08-27T02:26:15.718Z,100869.09
2023-08-27T02:26:47.147Z,100864.81
2023-08-27T02:27:18.619Z,100867.53
2023-08-27T02:27:50.489Z,100867.53
2023-08-27T02:28:21.967Z,100866.75
2023-08-27T02:28:53.616Z,100862.84
2023-08-27T02:29:25.030Z,100864.41
2023-08-27T02:29:56.561Z,100870.66
2023-08-27T02:30:28.073Z,100866.75
2023-08-27T02:30:59.907Z,100867.94
2023-08-27T02:31:31.513Z,100875.75
2023-08-27T02:32:03.765Z,100869.09
2023-08-27T02:32:35.261Z,100875.34
2023-08-27T02:33:06.776Z,100876.91
2023-08-27T02:33:38.434Z,100872.22
2023-08-27T02:34:10.022Z,100874.97
2023-08-27T02:34:41.537Z,100876.53
2023-08-27T02:35:13.067Z,100873.41
2023-08-27T02:35:44.496Z,100869.88
2023-08-27T02:36:15.877Z,100874.56
2023-08-27T02:36:47.340Z,100876.91
2023-08-27T02:37:19.406Z,100867.91
2023-08-27T02:37:50.889Z,100869.50
2023-08-27T02:38:22.380Z,100878.50
2023-08-27T02:38:55.397Z,100877.31
2023-08-27T02:39:26.939Z,100877.31
2023-08-27T02:39:58.386Z,100876.91
2023-08-27T02:40:29.839Z,100876.91
2023-08-27T02:41:01.329Z,100878.88
2023-08-27T02:41:32.827Z,100876.91
2023-08-27T02:42:04.405Z,100878.09
2023-08-27T02:42:37.935Z,100888.66
2023-08-27T02:43:09.548Z,100880.44
2023-08-27T02:43:41.053Z,100877.69
2023-08-27T02:44:12.545Z,100884.75
2023-08-27T02:44:43.965Z,100876.91
2023-08-27T02:45:34.171Z,100884.75
2023-08-27T02:46:06.027Z,100882.38
2023-08-27T02:46:37.713Z,100880.84
2023-08-27T02:47:09.537Z,100881.19
2023-08-27T02:47:41.006Z,100878.44
2023-08-27T02:48:13.640Z,100881.97
2023-08-27T02:48:45.093Z,100881.19
2023-08-27T02:49:16.565Z,100880.00
2023-08-27T02:49:48.033Z,100878.44
2023-08-27T02:50:19.440Z,100880.78
2023-08-27T02:50:50.867Z,100881.56
2023-08-27T02:51:22.441Z,100883.53
2023-08-27T02:51:55.179Z,100881.56
2023-08-27T02:52:26.662Z,100880.41
2023-08-27T02:52:58.432Z,100881.19
2023-08-27T02:53:30.171Z,100881.19
2023-08-27T02:54:01.685Z,100877.66
2023-08-27T02:54:33.162Z,100885.50
2023-08-27T02:55:05.052Z,100882.75
2023-08-27T02:55:36.474Z,100886.28
2023-08-27T02:56:09.248Z,100878.84
2023-08-27T02:56:40.784Z,100886.66
2023-08-27T02:57:12.317Z,100878.44
2023-08-27T02:57:43.780Z,100878.44
2023-08-27T02:58:15.290Z,100883.91
2023-08-27T02:58:50.383Z,100885.47
2023-08-27T02:59:21.876Z,100877.25
2023-08-27T02:59:53.481Z,100880.78
2023-08-27T03:00:26.365Z,100878.03
2023-08-27T03:00:57.858Z,100881.97
2023-08-27T03:01:29.344Z,100876.09
2023-08-27T03:02:01.000Z,100882.34
2023-08-27T03:02:32.627Z,100882.34
2023-08-27T03:03:04.447Z,100882.75
2023-08-27T03:03:36.010Z,100881.97
2023-08-27T03:04:07.543Z,100884.31
2023-08-27T03:04:39.269Z,100878.81
2023-08-27T03:05:10.821Z,100874.53
2023-08-27T03:05:42.411Z,100880.00
2023-08-27T03:06:14.536Z,100885.47
2023-08-27T03:06:46.028Z,100876.09
2023-08-27T03:07:17.549Z,100874.13
2023-08-27T03:07:49.232Z,100884.69
2023-08-27T03:08:20.658Z,100880.00
2023-08-27T03:08:52.454Z,100872.16
2023-08-27T03:09:24.024Z,100876.47
2023-08-27T03:09:55.549Z,100873.72
2023-08-27T03:10:27.009Z,100873.72
2023-08-27T03:10:58.467Z,100871.78
2023-08-27T03:11:29.905Z,100869.81
2023-08-27T03:12:01.337Z,100871.78
2023-08-27T03:12:32.861Z,100874.50
2023-08-27T03:13:04.368Z,100875.31
2023-08-27T03:13:36.515Z,100874.50
2023-08-27T03:14:08.489Z,100879.22
2023-08-27T03:14:40.014Z,100873.72
2023-08-27T03:15:11.512Z,100872.94
2023-08-27T03:15:42.911Z,100874.13
2023-08-27T03:16:14.340Z,100870.59
2023-08-27T03:16:45.867Z,100875.31
2023-08-27T03:17:17.291Z,100880.38
2023-08-27T03:17:49.165Z,100881.16
2023-08-27T03:18:20.653Z,100873.72
2023-08-27T03:18:52.119Z,100881.16
2023-08-27T03:19:23.589Z,100889.41
2023-08-27T03:19:55.213Z,100885.47
2023-08-27T03:20:26.676Z,100886.66
2023-08-27T03:20:58.148Z,100886.66
2023-08-27T03:21:29.616Z,100878.81
2023-08-27T03:22:01.356Z,100883.53
2023-08-27T03:22:32.759Z,100883.13
2023-08-27T03:23:04.254Z,100883.91
2023-08-27T03:23:36.961Z,100883.91
2023-08-27T03:24:08.497Z,100883.91
2023-08-27T03:24:39.916Z,100881.16
2023-08-27T03:25:11.473Z,100890.56
2023-08-27T03:25:43.021Z,100892.53
2023-08-27T03:26:14.490Z,100891.75
2023-08-27T03:26:45.912Z,100884.31
2023-08-27T03:27:17.317Z,100888.59
2023-08-27T03:27:48.863Z,100892.53
2023-08-27T03:28:20.320Z,100894.47
2023-08-27T03:28:51.810Z,100891.75
2023-08-27T03:29:23.238Z,100893.69
2023-08-27T03:29:54.765Z,100887.81
2023-08-27T03:30:26.233Z,100894.47
2023-08-27T03:30:57.721Z,100889.00
2023-08-27T03:31:29.241Z,100887.81
2023-08-27T03:32:01.036Z,100892.13
2023-08-27T03:32:32.690Z,100894.47
2023-08-27T03:33:04.490Z,100887.81
2023-08-27T03:33:36.310Z,100891.75
2023-08-27T03:34:07.961Z,100891.75
2023-08-27T03:34:39.372Z,100896.44
2023-08-27T03:35:12.424Z,100888.63
2023-08-27T03:35:52.906Z,100887.44
2023-08-27T03:36:24.375Z,100887.44
2023-08-27T03:36:55.847Z,100893.69
2023-08-27T03:37:27.316Z,100885.47
2023-08-27T03:37:58.945Z,100890.56
2023-08-27T03:38:30.625Z,100887.03
2023-08-27T03:39:02.374Z,100888.59
2023-08-27T03:39:34.255Z,100880.78
2023-08-27T03:40:06.349Z,100884.31
2023-08-27T03:40:37.725Z,100881.97
2023-08-27T03:41:09.117Z,100890.19
2023-08-27T03:41:40.681Z,100890.19
2023-08-27T03:42:12.150Z,100883.91
2023-08-27T03:42:43.673Z,100885.88
2023-08-27T03:43:15.160Z,100895.66
2023-08-27T03:43:46.561Z,100886.66
2023-08-27T03:44:18.054Z,100892.91
2023-08-27T03:44:49.634Z,100890.19
2023-08-27T03:45:21.342Z,100882.75
2023-08-27T03:45:52.914Z,100892.53
2023-08-27T03:46:24.505Z,100888.59
2023-08-27T03:46:55.985Z,100888.59
2023-08-27T03:47:28.140Z,100888.59
2023-08-27T03:47:59.659Z,100886.66
2023-08-27T03:48:31.116Z,100884.69
2023-08-27T03:49:03.196Z,100882.75
2023-08-27T03:49:34.693Z,100886.25
2023-08-27T03:50:06.862Z,100893.69
2023-08-27T03:50:38.842Z,100886.25
2023-08-27T03:51:10.480Z,100885.47
2023-08-27T03:51:42.128Z,100883.91
2023-08-27T03:52:13.545Z,100886.66
2023-08-27T03:52:44.960Z,100883.91
2023-08-27T03:53:16.414Z,100883.91
2023-08-27T03:53:48.201Z,100885.47
2023-08-27T03:54:19.675Z,100885.47
2023-08-27T03:54:51.360Z,100882.34
2023-08-27T03:55:22.955Z,100883.91
2023-08-27T03:55:54.555Z,100885.47
2023-08-27T03:56:26.022Z,100880.00
2023-08-27T03:56:59.875Z,100887.03
2023-08-27T03:57:31.351Z,100885.47
2023-08-27T03:58:03.350Z,100878.03
2023-08-27T03:58:35.128Z,100878.81
2023-08-27T03:59:06.621Z,100882.34
2023-08-27T03:59:38.056Z,100870.22
2023-08-27T04:00:10.211Z,100878.44
2023-08-27T04:00:41.728Z,100867.47
2023-08-27T04:01:13.217Z,100872.56
2023-08-27T04:01:44.728Z,100870.59
2023-08-27T04:03:06.265Z,100868.22
2023-08-27T04:03:37.877Z,100871.72
2023-08-27T04:04:09.522Z,100869.00
2023-08-27T04:04:40.992Z,100869.00
2023-08-27T04:05:12.869Z,100866.63
2023-08-27T04:05:44.310Z,100864.28
2023-08-27T04:06:16.057Z,100872.13
2023-08-27T04:06:47.831Z,100861.56
2023-08-27T04:07:19.517Z,100860.78
2023-08-27T04:07:50.925Z,100864.28
2023-08-27T04:08:22.375Z,100862.34
2023-08-27T04:08:53.866Z,100867.03
2023-08-27T04:09:26.867Z,100863.13
2023-08-27T04:09:58.480Z,100861.16
2023-08-27T04:10:30.842Z,100863.13
2023-08-27T04:11:02.781Z,100867.41
2023-08-27T04:11:34.320Z,100871.34
2023-08-27T04:12:06.250Z,100859.59
2023-08-27T04:12:37.922Z,100858.81
2023-08-27T04:13:09.414Z,100855.28
2023-08-27T04:13:40.882Z,100854.88
2023-08-27T04:14:12.414Z,100861.16
2023-08-27T04:14:44.471Z,100855.66
2023-08-27T04:15:16.352Z,100858.81
2023-08-27T04:15:58.745Z,100850.97
2023-08-27T04:16:31.136Z,100845.50
2023-08-27T04:17:03.390Z,100853.72
2023-08-27T04:17:34.948Z,100848.63
2023-08-27T04:18:06.453Z,100841.97
2023-08-27T04:18:38.227Z,100847.06
2023-08-27T04:19:09.931Z,100849.78
2023-08-27T04:19:41.418Z,100845.50
2023-08-27T04:20:12.930Z,100854.50
2023-08-27T04:20:44.405Z,100861.53
2023-08-27T04:21:15.960Z,100854.88
2023-08-27T04:21:47.472Z,100860.34
2023-08-27T04:22:19.143Z,100855.66
2023-08-27T04:22:50.741Z,100853.69
2023-08-27T04:23:22.218Z,100861.53
2023-08-27T04:23:53.686Z,100855.66
2023-08-27T04:24:25.169Z,100875.63
2023-08-27T04:24:56.621Z,100870.91
2023-08-27T04:25:28.370Z,100878.34
2023-08-27T04:25:59.819Z,100872.09
2023-08-27T04:26:31.358Z,100875.22
2023-08-27T04:27:02.899Z,100880.72
2023-08-27T04:27:35.076Z,100879.16
2023-08-27T04:28:06.594Z,100877.19
2023-08-27T04:28:38.307Z,100883.44
2023-08-27T04:29:09.987Z,100880.72
2023-08-27T04:29:41.445Z,100883.06
2023-08-27T04:30:13.788Z,100885.78
2023-08-27T04:30:49.436Z,100880.31
2023-08-27T04:31:20.938Z,100874.06
2023-08-27T04:31:52.479Z,100879.13
2023-08-27T04:32:24.041Z,100877.56
2023-08-27T04:32:55.829Z,100882.28
2023-08-27T04:33:29.572Z,100882.66
2023-08-27T04:34:01.058Z,100882.66
2023-08-27T04:34:32.502Z,100883.44
2023-08-27T04:35:05.546Z,100881.50
2023-08-27T04:35:37.301Z,100882.28
2023-08-27T04:36:09.135Z,100881.50
2023-08-27T04:36:40.669Z,100877.19
2023-08-27T04:37:12.312Z,100873.25
2023-08-27T04:37:44.404Z,100877.97
2023-08-27T04:38:15.819Z,100870.91
2023-08-27T04:38:47.286Z,100874.84
2023-08-27T04:39:18.746Z,100872.88
2023-08-27T04:39:50.193Z,100876.78
2023-08-27T04:40:21.675Z,100872.88
2023-08-27T04:40:53.905Z,100874.44
2023-08-27T04:41:25.464Z,100874.44
2023-08-27T04:41:57.884Z,100870.53
2023-08-27T04:42:29.382Z,100874.81
2023-08-27T04:43:01.518Z,100872.88
2023-08-27T04:43:33.804Z,100871.31
2023-08-27T04:44:05.603Z,100871.69
2023-08-27T04:44:37.052Z,100877.56
2023-08-27T04:45:10.324Z,100864.66
2023-08-27T04:45:41.754Z,100871.31
2023-08-27T04:46:13.268Z,100866.22
2023-08-27T04:46:44.771Z,100869.75
2023-08-27T04:47:17.364Z,100867.78
2023-08-27T04:47:48.899Z,100870.53
2023-08-27T04:48:20.838Z,100869.75
2023-08-27T04:48:52.330Z,100871.69
2023-08-27T04:49:23.741Z,100873.66
2023-08-27T04:49:55.212Z,100859.94
2023-08-27T04:50:26.744Z,100868.56
2023-08-27T04:50:59.202Z,100875.22
2023-08-27T04:51:30.598Z,100876.78
2023-08-27T04:52:02.063Z,100874.81
2023-08-27T04:52:33.699Z,100864.66
2023-08-27T04:53:05.176Z,100870.13
2023-08-27T04:53:36.596Z,100866.22
2023-08-27T04:54:08.213Z,100869.69
2023-08-27T04:54:39.648Z,100864.22
2023-08-27T04:55:12.522Z,100869.69
2023-08-27T04:55:44.947Z,100862.69
2023-08-27T04:56:16.609Z,100866.56
2023-08-27T04:56:48.026Z,100863.03
2023-08-27T04:57:19.504Z,100859.53
2023-08-27T04:57:51.268Z,100865.00
2023-08-27T04:58:22.761Z,100860.31
2023-08-27T04:58:54.442Z,100865.78
2023-08-27T04:59:25.905Z,100860.72
2023-08-27T04:59:57.486Z,100858.75
2023-08-27T05:00:28.930Z,100857.97
2023-08-27T05:01:00.587Z,100858.75
2023-08-27T05:01:32.103Z,100862.69
2023-08-27T05:02:03.964Z,100857.97
2023-08-27T05:02:38.524Z,100854.03
2023-08-27T05:03:10.000Z,100859.53
2023-08-27T05:03:41.943Z,100858.75
2023-08-27T05:04:13.435Z,100857.97
2023-08-27T05:04:45.268Z,100856.00
2023-08-27T05:05:17.295Z,100853.25
2023-08-27T05:05:52.603Z,100857.56
2023-08-27T05:06:24.037Z,100854.81
2023-08-27T05:06:55.776Z,100849.34
2023-08-27T05:07:27.310Z,100854.41
2023-08-27T05:07:58.983Z,100852.06
2023-08-27T05:08:30.818Z,100856.38
2023-08-27T05:09:21.003Z,100861.06
2023-08-27T05:09:52.869Z,100862.66
2023-08-27T05:10:24.446Z,100861.88
2023-08-27T05:10:55.968Z,100856.38
2023-08-27T05:11:27.530Z,100864.59
2023-08-27T05:11:59.052Z,100855.19
2023-08-27T05:12:30.520Z,100857.16
2023-08-27T05:13:02.011Z,100859.13
2023-08-27T05:13:33.683Z,100854.41
2023-08-27T05:14:05.188Z,100859.13
2023-08-27T05:14:36.647Z,100858.34
2023-08-27T05:15:08.491Z,100854.41
2023-08-27T05:15:40.620Z,100859.13
2023-08-27T05:16:12.241Z,100854.41
2023-08-27T05:16:43.877Z,100854.81
2023-08-27T05:17:15.363Z,100858.75
2023-08-27T05:17:47.650Z,100857.97
2023-08-27T05:18:19.195Z,100862.69
2023-08-27T05:18:50.696Z,100865.44
2023-08-27T05:19:22.310Z,100868.94
2023-08-27T05:19:53.736Z,100865.44
2023-08-27T05:20:25.207Z,100856.41
2023-08-27T05:20:56.865Z,100858.38
2023-08-27T05:21:28.284Z,100857.59
2023-08-27T05:22:01.423Z,100859.56
2023-08-27T05:22:32.878Z,100856.81
2023-08-27T05:23:04.814Z,100863.47
2023-08-27T05:23:36.331Z,100851.72
2023-08-27T05:24:07.988Z,100856.44
2023-08-27T05:24:39.586Z,100858.38
2023-08-27T05:25:11.192Z,100854.88
2023-08-27T05:25:44.736Z,100855.66
2023-08-27T05:26:16.462Z,100855.66
2023-08-27T05:26:47.969Z,100858.38
2023-08-27T05:27:19.386Z,100851.72
2023-08-27T05:27:50.752Z,100851.34
2023-08-27T05:28:22.264Z,100846.66
2023-08-27T05:28:53.709Z,100847.03
2023-08-27T05:29:25.257Z,100846.25
2023-08-27T05:29:56.617Z,100849.78
2023-08-27T05:30:28.245Z,100841.56
2023-08-27T05:30:59.672Z,100845.09
2023-08-27T05:31:31.685Z,100843.91
2023-08-27T05:32:03.901Z,100844.31
2023-08-27T05:32:36.218Z,100850.56
2023-08-27T05:33:08.826Z,100850.56
2023-08-27T05:33:40.526Z,100852.13
2023-08-27T05:34:12.139Z,100846.66
2023-08-27T05:34:43.579Z,100849.38
2023-08-27T05:35:15.031Z,100847.44
2023-08-27T05:35:46.484Z,100848.59
2023-08-27T05:36:18.013Z,100853.31
2023-08-27T05:36:49.730Z,100861.53
2023-08-27T05:37:21.176Z,100850.97
2023-08-27T05:37:52.780Z,100850.97
2023-08-27T05:38:24.394Z,100844.69
2023-08-27T05:38:55.939Z,100851.34
2023-08-27T05:39:27.393Z,100848.63
2023-08-27T05:39:59.506Z,100854.09
2023-08-27T05:40:30.978Z,100853.69
2023-08-27T05:41:21.044Z,100857.22
2023-08-27T05:41:52.520Z,100855.66
2023-08-27T05:42:23.978Z,100848.63
2023-08-27T05:42:55.466Z,100849.78
2023-08-27T05:43:27.392Z,100855.28
2023-08-27T05:43:59.756Z,100852.13
2023-08-27T05:44:31.222Z,100848.63
2023-08-27T05:45:04.175Z,100857.22
2023-08-27T05:45:36.706Z,100847.06
2023-08-27T05:46:08.168Z,100847.06
2023-08-27T05:46:39.625Z,100852.13
2023-08-27T05:47:11.139Z,100847.84
2023-08-27T05:47:42.756Z,100842.34
2023-08-27T05:48:14.335Z,100850.56
2023-08-27T05:48:45.814Z,100850.19
2023-08-27T05:49:17.239Z,100849.00
2023-08-27T05:49:48.768Z,100848.63
2023-08-27T05:50:20.277Z,100844.69
2023-08-27T05:50:51.794Z,100844.69
2023-08-27T05:51:23.297Z,100849.41
2023-08-27T05:51:54.812Z,100851.75
2023-08-27T05:52:26.208Z,100851.75
2023-08-27T05:52:57.704Z,100856.03
2023-08-27T05:53:29.088Z,100855.66
2023-08-27T05:54:00.582Z,100852.91
2023-08-27T05:54:32.016Z,100852.50
2023-08-27T05:55:03.614Z,100848.59
2023-08-27T05:55:35.215Z,100852.50
2023-08-27T05:56:06.714Z,100848.59
2023-08-27T05:56:38.126Z,100850.16
2023-08-27T05:57:09.625Z,100852.91
2023-08-27T05:57:41.053Z,100851.34
2023-08-27T05:58:12.602Z,100854.84
2023-08-27T05:58:44.271Z,100860.34
2023-08-27T05:59:16.432Z,100857.59
2023-08-27T05:59:50.839Z,100858.75
2023-08-27T06:00:22.328Z,100861.47
2023-08-27T06:00:57.777Z,100858.38
2023-08-27T06:01:29.392Z,100866.56
2023-08-27T06:02:01.103Z,100860.31
2023-08-27T06:02:32.827Z,100861.88
2023-08-27T06:03:05.200Z,100865.38
2023-08-27T06:03:36.706Z,100864.22
2023-08-27T06:04:08.241Z,100863.03
2023-08-27T06:04:39.651Z,100861.84
2023-08-27T06:05:12.746Z,100854.81
2023-08-27T06:05:44.220Z,100863.81
2023-08-27T06:06:15.675Z,100857.53
2023-08-27T06:06:47.147Z,100856.38
2023-08-27T06:07:18.690Z,100853.22
2023-08-27T06:07:50.119Z,100855.19
2023-08-27T06:08:21.582Z,100862.25
2023-08-27T06:08:53.084Z,100861.06
2023-08-27T06:09:24.586Z,100856.34
2023-08-27T06:09:56.004Z,100847.34
2023-08-27T06:10:27.403Z,100848.13
2023-08-27T06:10:58.858Z,100852.44
2023-08-27T06:11:30.552Z,100846.94
2023-08-27T06:12:03.559Z,100847.34